createdAt,value
2022-08-11T08:34:07.497Z,1017.29
2022-08-11T10:25:00.670Z,1016.86
2022-08-11T10:26:32.169Z,1016.83
2022-08-11T10:28:30.559Z,1016.79
2022-08-11T10:29:37.598Z,1016.78
2022-08-11T10:31:12.600Z,1016.80
2022-08-11T10:32:52.222Z,1016.75
2022-08-11T10:34:13.411Z,1016.79
2022-08-11T10:35:44.868Z,1016.71
2022-08-11T10:37:16.325Z,1016.71
2022-08-11T10:38:47.782Z,1016.75
2022-08-11T10:40:19.334Z,1016.66
2022-08-11T10:42:08.420Z,1016.68
2022-08-11T10:44:02.814Z,1016.65
2022-08-11T10:44:55.764Z,1016.68
2022-08-11T10:46:29.967Z,1016.59
2022-08-11T10:47:58.677Z,1016.56
2022-08-11T10:49:30.159Z,1016.55
2022-08-11T10:51:01.603Z,1016.61
2022-08-11T10:52:33.077Z,1016.57
2022-08-11T10:54:04.502Z,1016.59
2022-08-11T10:55:35.955Z,1016.54
2022-08-11T10:57:07.430Z,1016.54
2022-08-11T10:58:38.949Z,1016.51
2022-08-11T11:00:10.354Z,1016.49
2022-08-11T11:01:41.965Z,1016.51
2022-08-11T11:03:22.877Z,1016.54
2022-08-11T11:04:50.386Z,1016.48
2022-08-11T11:06:29.101Z,1016.51
2022-08-11T11:07:50.669Z,1016.52
2022-08-11T11:09:22.109Z,1016.56
2022-08-11T11:10:53.563Z,1016.48
2022-08-11T11:12:25.036Z,1016.48
2022-08-11T11:13:57.323Z,1016.44
2022-08-11T11:15:29.261Z,1016.44
2022-08-11T11:17:00.722Z,1016.44
2022-08-11T11:18:32.234Z,1016.44
2022-08-11T11:20:03.683Z,1016.44
2022-08-11T11:21:35.142Z,1016.44
2022-08-11T11:23:06.590Z,1016.39
2022-08-11T11:24:38.060Z,1016.46
2022-08-11T11:26:09.508Z,1016.40
2022-08-11T11:27:46.584Z,1016.42
2022-08-11T11:29:13.427Z,1016.39
2022-08-11T11:30:44.886Z,1016.40
2022-08-11T11:32:16.351Z,1016.37
